Time;durP1;ratioP1;P1;durP2;ratioP2;P2;SDS_P1;SDS_P2;PMS_P1;PMS_P2;Temp;Humidity;BMP_temperature;BMP_pressure;BME280_temperature;BME280_humidity;BME280_pressure;Samples;Min_cycle;Max_cycle;Signal;HPM_P1;HPM_P2
2023/10/26 00:01:12;;;;;;;23.88;13.98;;;;;;;18.17;100.00;99591.44;5071522;28;20025;-83
2023/10/26 00:03:37;;;;;;;22.27;12.60;;;;;;;18.10;100.00;99590.59;5049344;28;20112;-80
2023/10/26 00:06:03;;;;;;;28.45;13.05;;;;;;;18.04;100.00;99579.34;5070570;28;20021;-80
2023/10/26 00:08:28;;;;;;;43.95;15.73;;;;;;;17.85;100.00;99542.88;5070684;28;20036;-81
2023/10/26 00:10:54;;;;;;;24.33;13.00;;;;;;;18.08;100.00;99576.69;5027339;28;20049;-80
2023/10/26 00:13:19;;;;;;;25.17;13.88;;;;;;;18.15;100.00;99587.94;5025738;28;20619;-78
2023/10/26 00:15:45;;;;;;;26.50;14.10;;;;;;;17.86;100.00;99552.47;5027282;28;20051;-81
2023/10/26 00:20:46;;;;;;;25.25;13.05;;;;;;;17.90;100.00;99555.91;5244272;23;20064;-81
2023/10/26 00:23:12;;;;;;;30.27;12.98;;;;;;;18.07;100.00;99574.09;5052856;28;20036;-83
2023/10/26 00:25:37;;;;;;;40.65;14.95;;;;;;;18.06;100.00;99561.91;5052731;28;20028;-81
2023/10/26 00:28:03;;;;;;;25.35;12.88;;;;;;;18.05;100.00;99571.47;5070912;28;20107;-79
2023/10/26 00:30:28;;;;;;;25.58;13.75;;;;;;;18.03;100.00;99568.03;5052882;28;20077;-79
2023/10/26 00:32:54;;;;;;;25.50;12.38;;;;;;;17.89;100.00;99554.16;5070853;28;20028;-81
2023/10/26 00:35:19;;;;;;;24.50;13.35;;;;;;;17.78;100.00;99554.25;5070741;28;20103;-79
2023/10/26 00:37:45;;;;;;;24.83;12.63;;;;;;;17.64;100.00;99549.13;5070437;28;20036;-81
2023/10/26 00:40:10;;;;;;;24.92;12.75;;;;;;;17.71;100.00;99561.25;5070558;28;20071;-82
2023/10/26 00:42:36;;;;;;;25.83;12.40;;;;;;;17.59;100.00;99564.81;5047982;28;20037;-81
2023/10/26 00:45:02;;;;;;;26.65;12.93;;;;;;;17.27;100.00;99547.63;5031577;28;20037;-82
2023/10/26 00:47:28;;;;;;;25.10;13.23;;;;;;;17.24;100.00;99571.09;5048549;28;20102;-83
2023/10/26 00:49:54;;;;;;;26.83;13.20;;;;;;;17.14;100.00;99564.19;5048136;28;20091;-83
2023/10/26 00:52:21;;;;;;;34.20;14.95;;;;;;;17.26;100.00;99584.16;5031191;28;20139;-83
2023/10/26 00:54:46;;;;;;;25.05;13.13;;;;;;;16.78;100.00;99504.34;5030953;28;20036;-82
2023/10/26 00:57:15;;;;;;;25.95;13.55;;;;;;;17.21;100.00;99576.34;5030224;28;20045;-82
2023/10/26 00:59:43;;;;;;;26.83;13.43;;;;;;;16.92;100.00;99524.31;5048029;28;20033;-81
2023/10/26 01:02:09;;;;;;;26.95;14.70;;;;;;;17.30;100.00;99596.31;5029715;28;20268;-81
2023/10/26 01:04:35;;;;;;;35.60;14.85;;;;;;;17.23;100.00;99571.13;5047809;28;20588;-82
2023/10/26 01:07:00;;;;;;;28.50;14.25;;;;;;;17.20;100.00;99572.00;5047419;28;20037;-82
2023/10/26 01:09:26;;;;;;;23.25;13.63;;;;;;;16.92;100.00;99519.97;5047623;28;20033;-82
2023/10/26 01:11:51;;;;;;;31.15;14.77;;;;;;;17.19;100.00;99579.84;5029987;28;20036;-82
2023/10/26 01:14:17;;;;;;;28.15;15.30;;;;;;;17.02;100.00;99541.63;5058151;28;20044;-82
2023/10/26 01:16:42;;;;;;;30.00;15.13;;;;;;;17.11;100.00;99548.59;5071865;28;20510;-82
2023/10/26 01:19:09;;;;;;;30.13;14.35;;;;;;;17.03;100.00;99524.25;5071747;28;20059;-84
2023/10/26 01:21:53;;;;;;;28.00;15.07;;;;;;;17.22;100.00;99554.59;5089544;28;20099;-84
2023/10/26 01:24:19;;;;;;;29.95;14.85;;;;;;;17.06;100.00;99537.28;5069303;28;20460;-83
2023/10/26 01:26:45;;;;;;;34.33;15.00;;;;;;;16.66;100.00;99474.00;5031957;28;20068;-84
2023/10/26 01:29:11;;;;;;;23.90;12.82;;;;;;;16.84;100.00;99497.38;5049844;28;20039;-82
2023/10/26 01:31:37;;;;;;;26.30;14.48;;;;;;;16.89;100.00;99522.53;5049806;28;20028;-82
2023/10/26 01:34:03;;;;;;;33.45;14.85;;;;;;;16.49;100.00;99463.63;5031755;28;20078;-82
2023/10/26 01:36:28;;;;;;;30.77;14.55;;;;;;;16.77;100.00;99517.38;5031913;28;20036;-83
2023/10/26 01:38:56;;;;;;;25.83;13.05;;;;;;;16.82;100.00;99533.88;5048392;28;20032;-82
2023/10/26 01:41:22;;;;;;;29.88;13.65;;;;;;;16.92;100.00;99542.56;5049672;28;20112;-81
2023/10/26 01:43:47;;;;;;;21.25;12.98;;;;;;;16.80;100.00;99533.03;5031549;28;20155;-82
2023/10/26 01:46:13;;;;;;;27.95;13.73;;;;;;;16.76;100.00;99544.31;5049405;28;20060;-82
2023/10/26 01:48:39;;;;;;;27.02;14.30;;;;;;;16.70;100.00;99542.59;5049102;28;20048;-82
2023/10/26 01:51:05;;;;;;;29.80;14.27;;;;;;;16.76;100.00;99542.59;5049069;28;20055;-86
2023/10/26 01:56:52;;;;;;;25.23;15.02;;;;;;;16.28;100.00;99547.03;5227178;22;20059;-82
2023/10/26 01:59:18;;;;;;;25.35;13.75;;;;;;;15.97;100.00;99555.72;5051578;28;20025;-82
2023/10/26 02:01:43;;;;;;;28.38;14.38;;;;;;;15.63;100.00;99529.66;5069753;28;20479;-81
2023/10/26 02:04:09;;;;;;;26.33;15.35;;;;;;;15.75;100.00;99565.25;5026930;28;20038;-81
2023/10/26 02:06:34;;;;;;;31.50;15.65;;;;;;;15.33;100.00;99484.53;5028903;28;20041;-82
2023/10/26 02:09:00;;;;;;;26.83;13.63;;;;;;;15.89;100.00;99552.25;5014244;28;20466;-81
2023/10/26 02:11:25;;;;;;;29.67;15.38;;;;;;;15.89;100.00;99561.78;5030821;28;20053;-83
2023/10/26 02:13:51;;;;;;;25.63;14.73;;;;;;;15.52;100.00;99563.44;5030760;28;20137;-84
2023/10/26 02:16:18;;;;;;;31.15;15.40;;;;;;;15.48;100.00;99566.06;5030621;28;20040;-82
2023/10/26 02:18:44;;;;;;;31.23;16.17;;;;;;;15.47;100.00;99546.97;5014111;28;20462;-81
2023/10/26 02:21:10;;;;;;;32.35;17.25;;;;;;;15.57;100.00;99547.84;5013835;28;20087;-82
2023/10/26 02:23:35;;;;;;;31.90;17.10;;;;;;;15.49;100.00;99534.84;5013849;28;20037;-83
2023/10/26 02:26:02;;;;;;;29.92;15.90;;;;;;;15.69;100.00;99581.69;5030474;28;20116;-82
2023/10/26 02:28:27;;;;;;;30.08;16.58;;;;;;;15.52;100.00;99560.84;5030440;28;20531;-82
2023/10/26 02:30:53;;;;;;;27.23;16.85;;;;;;;15.64;100.00;99578.22;5030208;28;20042;-81
2023/10/26 02:33:18;;;;;;;31.42;15.82;;;;;;;15.56;100.00;99584.28;5030548;28;20041;-81
2023/10/26 02:35:44;;;;;;;27.48;16.40;;;;;;;15.34;100.00;99584.22;5061771;28;20478;-81
2023/10/26 02:38:09;;;;;;;30.88;15.88;;;;;;;15.20;100.00;99578.97;5054454;28;20415;-81
2023/10/26 02:40:36;;;;;;;35.00;18.08;;;;;;;15.10;100.00;99572.84;5054488;28;20534;-82
2023/10/26 02:43:02;;;;;;;34.10;16.90;;;;;;;15.26;100.00;99576.38;5072486;28;20032;-83
2023/10/26 02:45:27;;;;;;;29.92;16.63;;;;;;;15.42;100.00;99586.84;5054544;28;20036;-81
2023/10/26 02:47:53;;;;;;;26.52;15.88;;;;;;;15.43;100.00;99578.19;5072757;28;20410;-82
2023/10/26 02:50:18;;;;;;;29.65;15.82;;;;;;;15.35;100.00;99578.13;5054257;28;20048;-82
2023/10/26 02:52:44;;;;;;;26.45;15.50;;;;;;;15.23;100.00;99570.28;5054269;28;20060;-81
2023/10/26 02:55:09;;;;;;;30.33;14.70;;;;;;;15.13;100.00;99569.41;5054088;28;20052;-82
2023/10/26 02:57:35;;;;;;;28.83;16.20;;;;;;;14.94;100.00;99558.94;5036803;28;20033;-82
2023/10/26 03:00:01;;;;;;;32.83;17.67;;;;;;;14.99;100.00;99557.22;5051987;28;20033;-83
2023/10/26 03:02:26;;;;;;;28.80;15.20;;;;;;;14.82;100.00;99551.09;4991840;28;20045;-82
2023/10/26 03:04:51;;;;;;;28.25;14.82;;;;;;;14.73;100.00;99528.53;5009302;28;20042;-82
2023/10/26 03:07:22;;;;;;;34.80;16.70;;;;;;;14.88;100.00;99554.56;4993128;28;20034;-81
2023/10/26 03:09:49;;;;;;;29.50;15.90;;;;;;;14.80;100.00;99539.81;5009398;28;20033;-81
2023/10/26 03:12:15;;;;;;;30.90;15.88;;;;;;;15.04;100.00;99596.22;4995294;28;20108;-83
2023/10/26 03:14:41;;;;;;;30.05;15.15;;;;;;;14.93;100.00;99588.38;4997956;28;20066;-83
2023/10/26 03:17:06;;;;;;;31.13;16.30;;;;;;;14.96;100.00;99597.94;5008915;28;20119;-83
2023/10/26 03:19:32;;;;;;;25.20;15.35;;;;;;;14.90;100.00;99588.34;4992590;28;20116;-82
2023/10/26 03:21:58;;;;;;;35.40;17.13;;;;;;;14.88;100.00;99592.69;4992442;28;20128;-81
2023/10/26 03:24:23;;;;;;;32.95;15.75;;;;;;;14.97;100.00;99608.31;4992465;28;20561;-85
2023/10/26 03:26:49;;;;;;;35.85;16.08;;;;;;;14.69;100.00;99564.00;5008839;28;20037;-85
2023/10/26 03:29:14;;;;;;;39.67;17.30;;;;;;;14.86;100.00;99578.81;4992251;28;20052;-82
2023/10/26 03:31:41;;;;;;;34.17;15.68;;;;;;;14.96;100.00;99588.38;4992403;28;20036;-85
2023/10/26 03:34:07;;;;;;;27.73;15.65;;;;;;;15.00;100.00;99587.56;5041655;28;20037;-83
2023/10/26 03:36:33;;;;;;;29.27;16.20;;;;;;;15.12;100.00;99585.88;5032962;28;20040;-82
2023/10/26 03:38:58;;;;;;;25.75;16.10;;;;;;;15.23;100.00;99565.97;5032739;28;20033;-82
2023/10/26 03:41:24;;;;;;;30.80;16.60;;;;;;;15.09;100.00;99533.84;5032892;28;20025;-82
2023/10/26 03:43:50;;;;;;;23.58;15.07;;;;;;;14.91;100.00;99564.09;5030796;28;20115;-81
2023/10/26 03:46:15;;;;;;;28.83;16.30;;;;;;;14.60;100.00;99529.28;5031500;28;20028;-81
2023/10/26 03:48:41;;;;;;;28.30;14.60;;;;;;;14.59;100.00;99515.41;5032198;28;20098;-82
2023/10/26 03:51:06;;;;;;;31.40;16.27;;;;;;;15.00;100.00;99561.56;5048930;28;20491;-83
2023/10/26 03:53:32;;;;;;;31.17;15.93;;;;;;;14.99;100.00;99574.53;5031746;28;20025;-83
2023/10/26 03:55:58;;;;;;;36.40;16.63;;;;;;;14.92;100.00;99573.66;5050015;28;20099;-82
2023/10/26 03:58:23;;;;;;;34.97;16.30;;;;;;;14.91;100.00;99568.44;5032758;28;20028;-82
2023/10/26 04:00:51;;;;;;;27.65;16.77;;;;;;;15.07;100.00;99580.66;5027206;28;20068;-82
2023/10/26 04:03:16;;;;;;;35.70;17.00;;;;;;;14.84;100.00;99557.13;5027907;28;20099;-81
2023/10/26 04:05:42;;;;;;;37.72;17.42;;;;;;;14.78;100.00;99552.81;5027947;28;20046;-82
2023/10/26 04:08:07;;;;;;;32.03;15.75;;;;;;;14.87;100.00;99564.97;5027071;28;20030;-82
2023/10/26 04:10:34;;;;;;;31.08;16.00;;;;;;;14.41;100.00;99472.06;5026466;28;20558;-84
2023/10/26 04:13:00;;;;;;;33.70;16.55;;;;;;;15.14;100.00;99574.63;5019723;28;20052;-81
2023/10/26 04:15:25;;;;;;;24.88;15.57;;;;;;;15.11;100.00;99565.94;5010826;28;20041;-81
2023/10/26 04:17:51;;;;;;;29.35;17.35;;;;;;;14.87;100.00;99577.97;5021850;28;20036;-81
2023/10/26 04:20:16;;;;;;;38.80;16.88;;;;;;;14.65;100.00;99561.38;5027619;28;20045;-81
2023/10/26 04:22:42;;;;;;;33.88;17.42;;;;;;;14.57;100.00;99562.16;5010903;28;20022;-82
2023/10/26 04:25:08;;;;;;;34.63;17.92;;;;;;;14.72;100.00;99576.16;5025099;28;20076;-79
2023/10/26 04:27:35;;;;;;;27.63;16.10;;;;;;;14.79;100.00;99564.94;5026600;28;20076;-81
2023/10/26 04:30:01;;;;;;;29.90;16.83;;;;;;;14.76;100.00;99543.25;5025964;28;20052;-82
2023/10/26 04:32:26;;;;;;;32.60;16.30;;;;;;;14.72;100.00;99548.44;5043505;28;20053;-82
2023/10/26 04:34:53;;;;;;;33.33;15.95;;;;;;;14.72;100.00;99543.22;5032525;28;20178;-84
2023/10/26 04:37:19;;;;;;;32.83;16.48;;;;;;;14.86;100.00;99545.03;5032334;28;20406;-82
2023/10/26 04:39:45;;;;;;;32.85;16.33;;;;;;;14.87;100.00;99544.19;5032003;28;20036;-81
2023/10/26 04:42:12;;;;;;;32.53;16.75;;;;;;;14.80;100.00;99534.63;5050213;28;20517;-83
2023/10/26 04:44:38;;;;;;;37.45;17.10;;;;;;;14.74;100.00;99519.84;5045544;28;20037;-82
2023/10/26 04:47:04;;;;;;;31.30;15.70;;;;;;;14.79;100.00;99532.88;5047537;28;20407;-82
2023/10/26 04:49:29;;;;;;;28.98;16.23;;;;;;;15.03;100.00;99543.38;5028740;28;20029;-82
2023/10/26 04:51:55;;;;;;;29.67;15.90;;;;;;;15.06;100.00;99539.06;5028896;28;20024;-81
2023/10/26 04:54:20;;;;;;;29.38;16.02;;;;;;;14.54;100.00;99447.00;5028958;28;20095;-82
2023/10/26 04:56:46;;;;;;;29.67;14.82;;;;;;;14.96;100.00;99500.03;5032858;28;20053;-81
2023/10/26 04:59:14;;;;;;;26.05;15.88;;;;;;;14.98;100.00;99493.09;5032101;28;20029;-81
2023/10/26 05:01:39;;;;;;;29.05;15.55;;;;;;;15.07;100.00;99497.47;5033583;28;20185;-82
2023/10/26 05:04:05;;;;;;;36.65;17.05;;;;;;;14.83;100.00;99511.25;5033606;28;20037;-80
2023/10/26 05:06:32;;;;;;;31.88;16.73;;;;;;;14.48;100.00;99525.75;5048756;28;20056;-80
2023/10/26 05:08:58;;;;;;;44.13;17.52;;;;;;;14.40;100.00;99530.03;5049432;28;20150;-80
2023/10/26 05:11:23;;;;;;;31.83;16.15;;;;;;;14.45;100.00;99507.56;5049349;28;20153;-82
2023/10/26 05:14:09;;;;;;;36.40;15.50;;;;;;;14.62;100.00;99520.66;5049570;28;20462;-81
2023/10/26 05:16:35;;;;;;;33.78;15.35;;;;;;;14.60;100.00;99509.38;5005083;28;20072;-81
2023/10/26 05:19:00;;;;;;;40.67;18.30;;;;;;;14.58;100.00;99498.13;4984850;28;20170;-81
2023/10/26 05:21:26;;;;;;;35.85;16.30;;;;;;;14.26;100.00;99454.66;5006620;28;20128;-81
2023/10/26 05:23:51;;;;;;;29.58;16.83;;;;;;;14.27;100.00;99534.28;4989397;28;20389;-81
2023/10/26 05:26:17;;;;;;;32.65;16.15;;;;;;;14.18;100.00;99549.78;4998688;28;20069;-81
2023/10/26 05:28:43;;;;;;;35.03;18.20;;;;;;;14.06;100.00;99554.03;4987530;28;20046;-80
2023/10/26 05:31:09;;;;;;;40.92;20.65;;;;;;;13.82;100.00;99528.75;4988636;28;20049;-81
2023/10/26 05:33:36;;;;;;;44.88;21.73;;;;;;;14.22;100.00;99559.34;4997360;28;20041;-82
2023/10/26 05:36:02;;;;;;;41.03;21.17;;;;;;;14.21;100.00;99523.88;4997119;28;20038;-81
2023/10/26 05:38:28;;;;;;;43.17;21.35;;;;;;;14.36;100.00;99528.28;5001183;28;20101;-82
2023/10/26 05:40:56;;;;;;;45.63;21.13;;;;;;;14.71;100.00;99532.84;4998318;28;20056;-81
2023/10/26 05:43:22;;;;;;;32.75;16.40;;;;;;;14.56;100.00;99469.50;5009431;28;20025;-78
2023/10/26 05:45:48;;;;;;;34.08;17.05;;;;;;;14.94;100.00;99513.88;5001218;28;20081;-81
2023/10/26 05:48:13;;;;;;;37.33;18.10;;;;;;;15.07;100.00;99533.84;5024433;28;20043;-82
2023/10/26 05:50:43;;;;;;;32.58;17.77;;;;;;;14.87;100.00;99508.66;5026395;28;20624;-84
2023/10/26 05:53:10;;;;;;;35.10;16.58;;;;;;;14.92;100.00;99568.44;5052003;28;20025;-83
2023/10/26 05:55:36;;;;;;;37.70;16.70;;;;;;;14.90;100.00;99546.78;5051211;28;20048;-82
2023/10/26 05:58:02;;;;;;;30.63;16.58;;;;;;;15.14;100.00;99569.41;5028676;28;20172;-84
2023/10/26 06:00:28;;;;;;;34.03;16.50;;;;;;;15.14;100.00;99555.53;5019947;28;20076;-83
2023/10/26 06:02:53;;;;;;;33.30;16.35;;;;;;;15.13;100.00;99546.88;4987980;28;20496;-82
2023/10/26 06:05:19;;;;;;;36.13;16.90;;;;;;;15.27;100.00;99567.72;4971194;28;20112;-83
2023/10/26 06:07:44;;;;;;;28.05;15.55;;;;;;;15.34;100.00;99568.63;4988454;28;20057;-82
2023/10/26 06:10:11;;;;;;;24.83;16.40;;;;;;;15.55;100.00;99577.34;4973471;28;20123;-81
2023/10/26 06:12:37;;;;;;;24.98;15.30;;;;;;;15.69;100.00;99586.91;4987322;28;20190;-82
2023/10/26 06:15:03;;;;;;;28.58;15.20;;;;;;;15.89;100.00;99591.31;4987975;28;20078;-81
2023/10/26 06:17:28;;;;;;;29.98;15.68;;;;;;;16.03;100.00;99595.66;4976806;28;20631;-83
2023/10/26 06:19:54;;;;;;;31.95;15.45;;;;;;;16.03;100.00;99560.06;4989163;28;20129;-82
2023/10/26 06:22:19;;;;;;;25.58;13.77;;;;;;;16.05;100.00;99529.72;4989774;28;20042;-82
2023/10/26 06:24:45;;;;;;;33.60;14.93;;;;;;;16.45;100.00;99554.84;4988762;28;20033;-81
2023/10/26 06:27:11;;;;;;;32.88;12.30;;;;;;;16.62;100.00;99566.09;4971228;28;20764;-80
2023/10/26 06:29:36;;;;;;;34.95;13.65;;;;;;;16.78;100.00;99571.25;4987815;28;20066;-82
2023/10/26 06:32:02;;;;;;;26.42;13.50;;;;;;;16.45;100.00;99503.59;4989390;28;20069;-84
2023/10/26 06:34:29;;;;;;;25.33;12.40;;;;;;;16.98;100.00;99571.22;5009160;28;20037;-84
2023/10/26 06:36:54;;;;;;;24.65;11.93;;;;;;;17.06;100.00;99566.84;5051022;28;20399;-80
2023/10/26 06:39:20;;;;;;;25.95;12.52;;;;;;;17.24;100.00;99575.47;5050258;28;20029;-82
2023/10/26 06:41:45;;;;;;;25.10;11.90;;;;;;;17.28;100.00;99565.00;5034075;28;20407;-83
2023/10/26 06:44:10;;;;;;;21.48;11.20;;;;;;;17.17;100.00;99539.84;5033334;28;20823;-81
2023/10/26 06:46:36;;;;;;;29.52;12.80;;;;;;;17.53;100.00;99577.03;5049384;28;20530;-82
2023/10/26 06:49:01;;;;;;;30.10;12.50;;;;;;;17.72;100.00;99586.50;5033570;28;20033;-82
2023/10/26 06:51:28;;;;;;;32.88;16.67;;;;;;;17.89;100.00;99591.59;5051008;28;20499;-81
2023/10/26 06:53:54;;;;;;;29.77;13.32;;;;;;;18.19;100.00;99605.31;5033352;28;20118;-80
2023/10/26 06:56:19;;;;;;;27.23;11.68;;;;;;;18.31;100.00;99588.69;5033575;28;20114;-83
2023/10/26 06:58:46;;;;;;;23.98;11.60;;;;;;;17.98;100.00;99527.16;5033993;28;20028;-82
2023/10/26 07:01:11;;;;;;;27.40;9.32;;;;;;;18.23;100.00;99552.19;5052050;28;20032;-82
2023/10/26 07:03:37;;;;;;;23.27;9.93;;;;;;;18.46;100.00;99587.69;5034030;28;20408;-85
2023/10/26 07:06:03;;;;;;;29.02;11.60;;;;;;;18.51;100.00;99585.88;5033952;28;20078;-82
2023/10/26 07:08:29;;;;;;;24.38;11.40;;;;;;;18.47;100.00;99593.75;5033524;28;20029;-81
2023/10/26 07:10:54;;;;;;;28.90;12.77;;;;;;;18.52;100.00;99586.75;5031825;28;20036;-82
2023/10/26 07:13:23;;;;;;;32.67;12.35;;;;;;;18.66;100.00;99602.31;5050553;28;20021;-82
2023/10/26 07:15:49;;;;;;;27.47;11.00;;;;;;;18.63;100.00;99586.63;5045008;28;20036;-80
2023/10/26 07:18:18;;;;;;;25.23;13.00;;;;;;;18.69;100.00;99605.75;5032306;28;20303;-81
2023/10/26 07:20:44;;;;;;;26.48;10.73;;;;;;;18.68;100.00;99584.84;5049927;28;20040;-79
2023/10/26 07:23:09;;;;;;;25.40;10.73;;;;;;;18.84;100.00;99593.38;5049380;28;20033;-82
2023/10/26 07:25:35;;;;;;;23.60;10.55;;;;;;;18.93;100.00;99606.41;5047640;28;20031;-84
2023/10/26 07:28:02;;;;;;;22.55;10.70;;;;;;;18.94;100.00;99602.91;5031313;28;20136;-80
2023/10/26 07:30:27;;;;;;;32.97;12.10;;;;;;;18.89;100.00;99605.53;5031171;28;20037;-79
2023/10/26 07:32:53;;;;;;;21.95;11.00;;;;;;;18.58;100.00;99545.72;5047343;28;20021;-83
2023/10/26 07:35:18;;;;;;;20.50;9.38;;;;;;;18.98;100.00;99606.34;5050241;28;20031;-81
2023/10/26 07:37:44;;;;;;;32.72;10.40;;;;;;;18.91;100.00;99602.94;5032386;28;20028;-82
2023/10/26 07:40:09;;;;;;;23.42;10.43;;;;;;;19.04;100.00;99607.16;5029965;28;20116;-81
2023/10/26 07:42:35;;;;;;;22.90;10.27;;;;;;;19.15;100.00;99601.78;5049310;28;20499;-80
2023/10/26 07:45:00;;;;;;;22.88;9.65;;;;;;;19.18;100.00;99604.34;5031226;28;20082;-82
2023/10/26 07:47:26;;;;;;;25.42;8.75;;;;;;;19.29;100.00;99609.47;5049133;28;20029;-81
2023/10/26 07:49:51;;;;;;;19.25;9.10;;;;;;;19.22;100.00;99574.66;5048600;28;20033;-78
2023/10/26 07:52:17;;;;;;;26.00;10.40;;;;;;;19.40;100.00;99588.38;5036519;28;20025;-80
2023/10/26 07:54:42;;;;;;;22.63;9.80;;;;;;;19.53;100.00;99617.88;5050205;28;20041;-79
2023/10/26 07:57:08;;;;;;;25.90;9.60;;;;;;;19.43;100.00;99588.34;5050194;28;20056;-81
2023/10/26 07:59:34;;;;;;;20.90;9.30;;;;;;;19.53;100.00;99600.41;5048325;28;20075;-79
2023/10/26 08:01:59;;;;;;;24.05;8.50;;;;;;;19.46;100.00;99567.34;5032590;28;20029;-77
2023/10/26 08:04:25;;;;;;;21.20;8.73;;;;;;;19.67;100.00;99578.41;5031136;28;20037;-76
2023/10/26 08:06:51;;;;;;;18.50;8.63;;;;;;;19.58;100.00;99566.31;5050398;28;20028;-80
2023/10/26 08:09:16;;;;;;;20.80;9.70;;;;;;;19.56;100.00;99561.13;5049766;28;20431;-76
2023/10/26 08:11:42;;;;;;;26.30;8.68;;;;;;;19.56;100.00;99562.84;5032173;28;20029;-76
2023/10/26 08:14:09;;;;;;;32.72;10.48;;;;;;;19.38;100.00;99522.97;5049555;28;20047;-76
2023/10/26 08:16:34;;;;;;;23.27;10.82;;;;;;;19.67;100.00;99565.31;5050536;28;20025;-75
2023/10/26 08:19:00;;;;;;;27.98;10.93;;;;;;;19.30;100.00;99497.78;5050025;28;20102;-77
2023/10/26 08:21:25;;;;;;;26.73;12.45;;;;;;;19.63;100.00;99550.56;5031994;28;20037;-74
2023/10/26 08:23:50;;;;;;;27.75;12.88;;;;;;;19.67;100.00;99558.31;5049422;28;20029;-75
2023/10/26 08:26:16;;;;;;;24.67;12.18;;;;;;;19.68;100.00;99546.09;5050060;28;20025;-76
2023/10/26 08:28:41;;;;;;;17.40;9.25;;;;;;;19.63;100.00;99522.59;5044216;28;20029;-76
2023/10/26 08:31:07;;;;;;;19.52;8.18;;;;;;;19.62;100.00;99506.91;5049922;28;20029;-77
2023/10/26 08:33:35;;;;;;;18.23;9.95;;;;;;;19.60;100.00;99491.25;5049601;28;20029;-82
2023/10/26 08:36:02;;;;;;;18.90;7.85;;;;;;;19.80;100.00;99552.88;5049509;28;20127;-80
2023/10/26 08:38:27;;;;;;;16.35;7.18;;;;;;;19.85;100.00;99546.72;5049628;28;20111;-81
2023/10/26 08:40:54;;;;;;;21.00;7.35;;;;;;;19.80;100.00;99509.25;5031533;28;20260;-80
2023/10/26 08:43:22;;;;;;;17.33;8.07;;;;;;;19.99;100.00;99532.56;5031715;28;20025;-80
2023/10/26 08:45:48;;;;;;;19.67;9.90;;;;;;;20.11;100.00;99537.59;5049445;28;20025;-77
2023/10/26 08:48:18;;;;;;;36.20;15.20;;;;;;;20.14;100.00;99547.16;5049098;28;20045;-77
2023/10/26 08:50:45;;;;;;;30.35;18.38;;;;;;;19.68;100.00;99484.13;5031816;28;20025;-77
2023/10/26 08:53:11;;;;;;;32.78;14.40;;;;;;;20.06;100.00;99557.75;5031611;28;20449;-77
2023/10/26 08:55:39;;;;;;;20.98;10.07;;;;;;;20.08;100.00;99579.53;5031414;28;20491;-77
2023/10/26 08:58:05;;;;;;;31.02;14.35;;;;;;;20.14;100.00;99571.59;5015508;28;20087;-76
2023/10/26 09:00:30;;;;;;;25.65;12.38;;;;;;;19.94;100.00;99519.53;5031522;28;20017;-75
2023/10/26 09:02:56;;;;;;;15.85;8.30;;;;;;;20.32;100.00;99559.06;5031578;28;20497;-76
2023/10/26 09:05:22;;;;;;;18.98;7.40;;;;;;;20.47;100.00;99540.44;5049326;28;20025;-80
2023/10/26 09:07:48;;;;;;;14.38;8.38;;;;;;;20.66;100.00;99561.94;5049273;28;20036;-78
2023/10/26 09:10:27;;;;;;;18.13;7.57;;;;;;;20.57;100.00;99495.69;5039474;28;20021;-81
2023/10/26 09:13:14;;;;;;;14.65;6.47;;;;;;;21.13;100.00;99554.03;5046689;28;20426;-81
2023/10/26 09:15:51;;;;;;;20.15;5.88;;;;;;;21.23;100.00;99545.94;5048768;28;20029;-81
2023/10/26 09:18:17;;;;;;;13.02;5.80;;;;;;;21.47;100.00;99563.78;5033621;28;20031;-77
2023/10/26 09:20:59;;;;;;;13.63;5.85;;;;;;;21.57;99.02;99568.84;5035008;28;20033;-82
2023/10/26 09:23:30;;;;;;;13.50;5.43;;;;;;;21.69;98.57;99584.31;5052587;28;20040;-81
2023/10/26 09:26:04;;;;;;;15.50;5.80;;;;;;;21.67;98.03;99573.00;5051601;28;20028;-80
2023/10/26 09:28:46;;;;;;;15.25;5.15;;;;;;;21.56;97.77;99562.75;5053300;28;20029;-78
2023/10/26 09:31:11;;;;;;;9.50;4.80;;;;;;;21.68;96.80;99572.09;5032593;28;20029;-86
2023/10/26 09:33:37;;;;;;;11.45;4.82;;;;;;;21.32;96.03;99511.59;5053064;28;20025;-79
2023/10/26 09:36:13;;;;;;;16.08;5.53;;;;;;;21.69;96.18;99558.06;5052963;28;20027;-80
2023/10/26 09:38:41;;;;;;;11.05;4.82;;;;;;;21.85;95.40;99558.56;5051598;28;20072;-79
2023/10/26 09:41:11;;;;;;;10.87;4.73;;;;;;;21.44;95.11;99485.06;5052803;28;20028;-80
2023/10/26 09:43:42;;;;;;;11.55;4.88;;;;;;;21.77;94.46;99544.72;5035010;28;20295;-79
2023/10/26 09:46:14;;;;;;;11.73;4.85;;;;;;;21.89;94.68;99569.88;5043231;28;20120;-79
2023/10/26 09:48:40;;;;;;;12.18;4.80;;;;;;;21.86;94.77;99567.28;5052835;28;20060;-77
2023/10/26 09:51:06;;;;;;;9.52;5.43;;;;;;;21.65;94.72;99520.50;5043073;28;20035;-79
2023/10/26 09:53:38;;;;;;;13.10;5.65;;;;;;;21.91;95.07;99541.78;5034681;28;20096;-78
2023/10/26 09:56:04;;;;;;;14.50;5.47;;;;;;;21.87;94.41;99530.50;5051224;28;20053;-79
2023/10/26 09:58:40;;;;;;;18.27;5.07;;;;;;;21.87;93.97;99555.88;5034637;28;20104;-80
2023/10/26 10:01:39;;;;;;;13.25;5.63;;;;;;;21.82;94.22;99545.50;5050247;28;20178;-79
2023/10/26 10:04:09;;;;;;;13.43;5.95;;;;;;;21.81;94.49;99544.63;5052008;28;20067;-79
2023/10/26 10:06:47;;;;;;;15.07;5.43;;;;;;;21.85;93.95;99541.94;5050097;28;20395;-80
2023/10/26 10:09:13;;;;;;;18.45;5.70;;;;;;;21.87;93.67;99540.13;5050422;28;20163;-76
2023/10/26 10:11:39;;;;;;;9.38;5.20;;;;;;;21.85;93.75;99536.69;5052272;28;20500;-78
2023/10/26 10:14:05;;;;;;;12.35;5.80;;;;;;;21.86;93.91;99548.91;5033829;28;20418;-78
2023/10/26 10:16:33;;;;;;;19.20;6.95;;;;;;;21.87;93.77;99542.75;5052421;28;20055;-77
2023/10/26 10:19:26;;;;;;;15.80;6.35;;;;;;;21.85;93.83;99539.31;5034343;28;20513;-77
2023/10/26 10:21:51;;;;;;;20.95;6.75;;;;;;;21.30;93.75;99460.91;5052056;28;20028;-77
2023/10/26 10:24:39;;;;;;;17.70;7.05;;;;;;;21.74;94.24;99540.41;5029407;28;20025;-83
2023/10/26 10:27:15;;;;;;;14.23;6.78;;;;;;;21.55;94.39;99497.94;5031499;28;20033;-81
2023/10/26 10:29:42;;;;;;;19.35;6.53;;;;;;;21.81;94.35;99535.91;5032566;28;20029;-79
2023/10/26 10:32:07;;;;;;;17.15;7.30;;;;;;;21.79;94.68;99520.19;5051799;28;20066;-80
2023/10/26 10:34:44;;;;;;;13.27;6.43;;;;;;;21.81;93.42;99513.09;5052319;28;20021;-81
2023/10/26 10:37:13;;;;;;;12.45;5.75;;;;;;;21.95;92.54;99535.56;5052308;28;20102;-82
2023/10/26 10:39:58;;;;;;;20.13;5.55;;;;;;;21.89;91.89;99518.16;5034679;28;20033;-80
2023/10/26 10:42:24;;;;;;;13.05;5.68;;;;;;;21.89;92.39;99520.78;5034422;28;20119;-81
2023/10/26 10:44:52;;;;;;;10.18;4.97;;;;;;;21.92;91.98;99511.97;5034426;28;20033;-81
2023/10/26 10:47:17;;;;;;;12.60;3.85;;;;;;;21.85;90.89;99500.75;5029933;28;20487;-82
2023/10/26 10:49:43;;;;;;;8.95;4.63;;;;;;;21.83;90.55;99499.91;5029800;28;20073;-80
2023/10/26 10:52:15;;;;;;;7.97;2.90;;;;;;;21.88;90.49;99516.47;5029724;28;20053;-79
2023/10/26 10:54:49;;;;;;;7.70;3.00;;;;;;;21.77;90.12;99495.69;5029510;28;20044;-87
2023/10/26 10:57:14;;;;;;;9.45;2.53;;;;;;;21.49;89.39;99456.06;5013071;28;21050;-80
2023/10/26 10:59:40;;;;;;;8.45;2.58;;;;;;;21.64;90.81;99502.16;5029973;28;20112;-80
2023/10/26 11:02:08;;;;;;;7.85;1.92;;;;;;;21.25;94.37;99461.00;5012940;28;20451;-76
2023/10/26 11:04:35;;;;;;;6.82;2.10;;;;;;;21.48;95.98;99520.00;5029305;28;20553;-77
2023/10/26 11:07:01;;;;;;;5.53;1.60;;;;;;;21.29;96.88;99496.78;5029143;28;20099;-77
2023/10/26 11:09:29;;;;;;;6.20;1.80;;;;;;;21.08;98.12;99478.91;5029469;28;20025;-77
2023/10/26 11:11:55;;;;;;;5.85;2.10;;;;;;;20.82;100.00;99485.56;5029518;28;20088;-76
2023/10/26 11:14:22;;;;;;;12.35;2.28;;;;;;;20.63;100.00;99479.81;5029129;28;20072;-77
2023/10/26 11:16:50;;;;;;;10.65;2.03;;;;;;;20.42;100.00;99454.91;5029574;28;20083;-78
2023/10/26 11:19:15;;;;;;;4.40;1.80;;;;;;;20.33;100.00;99472.53;5033335;28;20036;-75